Time;durP1;ratioP1;P1;durP2;ratioP2;P2;SDS_P1;SDS_P2;PMS_P1;PMS_P2;Temp;Humidity;BMP_temperature;BMP_pressure;BME280_temperature;BME280_humidity;BME280_pressure;Samples;Min_cycle;Max_cycle;Signal;HPM_P1;HPM_P2
2022/01/27 00:05:03;;;;;;;18.55;9.13;;;;;;;-2.75;70.14;99810.16;5013470;28;20505;-81
2022/01/27 00:07:33;;;;;;;19.88;9.55;;;;;;;-2.74;69.91;99818.69;5013149;28;20148;-81
2022/01/27 00:10:15;;;;;;;14.38;6.90;;;;;;;-2.77;70.03;99821.09;5011255;28;20516;-81
2022/01/27 00:12:43;;;;;;;16.55;7.65;;;;;;;-2.75;70.23;99828.06;5013205;28;20057;-82
2022/01/27 00:15:12;;;;;;;13.13;6.72;;;;;;;-2.75;69.78;99816.97;4995710;28;20050;-80
2022/01/27 00:17:56;;;;;;;12.97;7.07;;;;;;;-2.77;69.15;99790.41;5013225;28;20054;-81
2022/01/27 00:20:23;;;;;;;13.10;6.38;;;;;;;-2.70;69.06;99805.28;5013370;28;20343;-80
2022/01/27 00:22:51;;;;;;;16.05;7.40;;;;;;;-2.74;69.06;99813.59;5013814;28;20057;-81
2022/01/27 00:25:18;;;;;;;18.95;8.40;;;;;;;-2.65;69.48;99820.88;5013437;28;20057;-80
2022/01/27 00:27:46;;;;;;;17.42;8.32;;;;;;;-2.59;69.78;99816.13;5013558;28;20050;-81
2022/01/27 00:30:13;;;;;;;21.20;10.93;;;;;;;-2.59;69.28;99817.00;5013926;28;20096;-81
2022/01/27 00:32:40;;;;;;;23.38;12.45;;;;;;;-2.57;69.08;99820.50;5013676;28;20057;-81
2022/01/27 00:35:07;;;;;;;23.58;12.90;;;;;;;-2.56;69.19;99822.28;5015810;28;20058;-80
2022/01/27 00:37:34;;;;;;;23.05;12.27;;;;;;;-2.50;69.11;99816.59;5017523;28;20097;-80
2022/01/27 00:40:02;;;;;;;26.33;13.70;;;;;;;-2.53;68.77;99824.13;5017079;28;20456;-80
2022/01/27 00:42:30;;;;;;;26.95;12.70;;;;;;;-2.66;68.32;99817.47;5017457;28;20068;-81
2022/01/27 00:44:58;;;;;;;23.17;12.50;;;;;;;-2.81;68.49;99817.50;4999754;28;20054;-80
2022/01/27 00:47:25;;;;;;;24.30;12.07;;;;;;;-2.99;69.25;99819.91;4999097;28;20049;-80
2022/01/27 00:49:52;;;;;;;22.15;11.13;;;;;;;-3.10;69.26;99815.84;5017067;28;20054;-80
2022/01/27 00:52:36;;;;;;;24.25;10.00;;;;;;;-3.24;68.92;99809.94;5016828;28;20495;-80
2022/01/27 00:55:05;;;;;;;25.65;10.32;;;;;;;-3.33;69.20;99810.31;5018430;28;20421;-79
2022/01/27 01:00:04;;;;;;;22.37;10.67;;;;;;;-3.41;69.87;99810.66;5020124;28;20058;-80
2022/01/27 01:07:55;;;;;;;18.38;7.40;;;;;;;-3.68;69.62;99807.34;5024441;28;20496;-79
2022/01/27 01:15:51;;;;;;;20.67;8.30;;;;;;;-3.71;69.93;99783.41;5038617;28;20050;-79
2022/01/27 01:31:44;;;;;;;19.05;8.80;;;;;;;-3.88;70.94;99807.06;5036005;28;20501;-80
2022/01/27 01:34:21;;;;;;;21.10;9.23;;;;;;;-3.85;70.92;99812.38;5036165;28;20144;-79
2022/01/27 01:37:00;;;;;;;17.20;7.60;;;;;;;-3.94;70.83;99783.72;4981790;28;20088;-80
2022/01/27 01:39:31;;;;;;;21.13;8.52;;;;;;;-3.75;71.11;99804.44;5015651;28;20127;-80
2022/01/27 01:42:00;;;;;;;15.93;8.02;;;;;;;-3.54;70.62;99806.50;5016320;28;20104;-79
2022/01/27 01:44:27;;;;;;;18.45;8.70;;;;;;;-3.57;70.54;99793.53;5033054;28;20057;-79
2022/01/27 01:46:55;;;;;;;17.25;8.50;;;;;;;-3.44;70.61;99805.34;5021923;28;20050;-79
2022/01/27 01:49:26;;;;;;;21.02;9.10;;;;;;;-3.46;70.55;99789.06;5038430;28;20104;-79
2022/01/27 01:51:54;;;;;;;15.93;8.15;;;;;;;-3.32;70.25;99819.72;5036162;28;20085;-81
2022/01/27 01:54:21;;;;;;;19.75;8.65;;;;;;;-3.26;70.04;99823.44;5039713;28;20034;-80
2022/01/27 01:56:49;;;;;;;21.95;8.93;;;;;;;-3.21;70.11;99802.44;5038500;28;20090;-79
2022/01/27 01:59:16;;;;;;;18.83;8.80;;;;;;;-3.12;70.09;99808.09;5026088;28;20081;-82
2022/01/27 02:01:44;;;;;;;16.75;8.50;;;;;;;-3.07;70.42;99804.94;5013356;28;20092;-81
2022/01/27 02:04:12;;;;;;;19.23;8.90;;;;;;;-2.98;70.30;99818.22;5015177;28;20050;-81
2022/01/27 02:07:03;;;;;;;19.50;9.02;;;;;;;-2.98;69.47;99803.75;5013966;28;20049;-81
2022/01/27 02:20:40;;;;;;;11.60;5.80;;;;;;;-3.25;69.38;99807.31;4938294;29;20066;-80
2022/01/27 02:23:10;;;;;;;10.13;5.72;;;;;;;-3.20;69.28;99813.56;4956611;29;20521;-78
2022/01/27 02:25:38;;;;;;;13.93;6.03;;;;;;;-3.18;69.10;99796.66;4988196;28;20054;-78
2022/01/27 02:28:05;;;;;;;14.27;7.43;;;;;;;-3.05;69.04;99810.97;5014716;28;20057;-78
2022/01/27 02:30:33;;;;;;;13.90;6.90;;;;;;;-2.99;69.45;99809.69;5014545;28;20050;-78
2022/01/27 02:33:00;;;;;;;13.88;6.60;;;;;;;-2.90;69.48;99807.63;5014950;28;20568;-80
2022/01/27 02:35:30;;;;;;;12.15;6.45;;;;;;;-2.91;68.99;99785.41;5014736;28;20053;-78
2022/01/27 02:37:58;;;;;;;13.88;7.13;;;;;;;-2.73;68.78;99808.56;5014771;28;20050;-78
2022/01/27 02:40:25;;;;;;;13.93;6.00;;;;;;;-2.72;68.11;99812.88;5014510;28;20149;-78
2022/01/27 02:42:53;;;;;;;15.18;6.32;;;;;;;-2.70;68.26;99807.84;5014353;28;20145;-78
2022/01/27 02:45:35;;;;;;;11.32;5.68;;;;;;;-2.75;68.28;99811.84;5014141;28;20056;-81
2022/01/27 02:48:05;;;;;;;13.55;6.32;;;;;;;-2.70;68.42;99805.28;5014178;28;20100;-80
2022/01/27 02:50:32;;;;;;;14.45;7.63;;;;;;;-2.74;68.35;99808.47;5014063;28;20111;-78
2022/01/27 02:52:59;;;;;;;13.27;7.32;;;;;;;-2.76;68.15;99802.41;5013689;28;20428;-78
2022/01/27 02:55:26;;;;;;;12.45;6.88;;;;;;;-2.84;68.66;99795.97;5014293;28;20064;-78
2022/01/27 02:57:55;;;;;;;12.25;6.95;;;;;;;-2.76;68.39;99808.38;5013687;28;20150;-80
2022/01/27 03:00:26;;;;;;;13.68;7.30;;;;;;;-2.77;68.38;99809.19;5014201;28;20107;-79
2022/01/27 03:02:53;;;;;;;14.57;7.25;;;;;;;-2.74;68.55;99799.13;4996170;28;20053;-79
2022/01/27 03:05:20;;;;;;;15.48;7.72;;;;;;;-2.84;68.06;99790.84;5013755;28;20054;-79
2022/01/27 03:07:48;;;;;;;16.60;7.88;;;;;;;-2.84;68.72;99794.28;5013134;28;20455;-79
2022/01/27 03:10:16;;;;;;;12.85;7.18;;;;;;;-2.83;68.36;99801.19;4996258;28;20494;-79
2022/01/27 03:12:43;;;;;;;16.45;7.78;;;;;;;-2.96;68.38;99773.19;5012801;28;20060;-80
2022/01/27 03:15:11;;;;;;;15.15;7.75;;;;;;;-2.80;68.87;99810.69;5014393;28;20520;-80
2022/01/27 03:17:39;;;;;;;18.05;9.07;;;;;;;-2.83;68.85;99788.41;5013488;28;20107;-80
2022/01/27 03:20:08;;;;;;;16.40;7.95;;;;;;;-2.82;68.55;99792.69;5013207;28;20057;-79
2022/01/27 03:22:35;;;;;;;18.75;9.20;;;;;;;-2.94;68.92;99766.47;4979685;28;20065;-79
2022/01/27 03:25:03;;;;;;;19.27;9.93;;;;;;;-2.89;69.00;99785.50;5013797;28;20506;-80
2022/01/27 03:27:30;;;;;;;22.05;11.70;;;;;;;-2.85;69.17;99784.88;5013868;28;20148;-80
2022/01/27 03:29:57;;;;;;;21.50;10.80;;;;;;;-2.83;69.04;99785.84;5013716;28;20131;-80
2022/01/27 03:32:26;;;;;;;24.13;11.70;;;;;;;-2.95;68.96;99768.13;5012183;28;20115;-81
2022/01/27 03:34:54;;;;;;;22.58;10.55;;;;;;;-2.86;68.81;99785.69;5012713;28;20149;-79
2022/01/27 03:37:20;;;;;;;23.08;11.68;;;;;;;-2.85;69.14;99792.53;5013667;28;20057;-80
2022/01/27 03:39:48;;;;;;;23.40;11.60;;;;;;;-2.90;68.72;99789.72;5013221;28;20054;-80
2022/01/27 03:42:14;;;;;;;22.65;12.32;;;;;;;-2.96;68.97;99794.50;5013837;28;20061;-81
2022/01/27 03:44:42;;;;;;;24.63;12.55;;;;;;;-3.23;69.32;99777.59;5013032;28;20425;-79
2022/01/27 03:47:09;;;;;;;26.25;12.90;;;;;;;-3.23;69.90;99788.69;5013000;28;20061;-79
2022/01/27 03:49:36;;;;;;;26.88;12.60;;;;;;;-3.26;69.53;99780.00;5012969;28;20061;-80
2022/01/27 03:52:03;;;;;;;25.15;12.25;;;;;;;-3.21;69.76;99783.69;5013502;28;20405;-79
2022/01/27 03:54:31;;;;;;;24.23;12.65;;;;;;;-3.16;69.55;99778.06;5013547;28;20085;-80
2022/01/27 03:56:59;;;;;;;23.48;12.50;;;;;;;-3.29;69.46;99752.63;5012548;28;20481;-80
2022/01/27 03:59:27;;;;;;;25.48;12.63;;;;;;;-3.22;69.34;99787.94;5013269;28;20084;-81
2022/01/27 04:01:54;;;;;;;22.75;11.02;;;;;;;-3.33;69.42;99769.44;5012883;28;20054;-81
2022/01/27 04:04:23;;;;;;;24.40;11.35;;;;;;;-3.50;70.30;99771.00;5012945;28;20464;-82
2022/01/27 04:06:52;;;;;;;25.65;11.45;;;;;;;-3.42;70.00;99766.38;5013065;28;20057;-82
2022/01/27 04:09:19;;;;;;;26.02;11.73;;;;;;;-3.50;70.04;99768.47;5014056;28;20054;-82
2022/01/27 04:11:47;;;;;;;24.75;11.48;;;;;;;-3.69;70.37;99744.34;5016834;28;20089;-81
2022/01/27 04:14:14;;;;;;;20.00;9.70;;;;;;;-3.55;70.50;99764.78;5016954;28;20060;-82
2022/01/27 04:16:41;;;;;;;20.38;9.73;;;;;;;-3.73;70.01;99754.34;5016977;28;20050;-81
2022/01/27 04:19:08;;;;;;;21.67;9.65;;;;;;;-3.68;70.68;99769.94;5018493;28;20140;-79
2022/01/27 04:21:35;;;;;;;21.42;10.13;;;;;;;-3.75;70.87;99778.91;5016161;28;20428;-79
2022/01/27 04:24:04;;;;;;;24.95;10.45;;;;;;;-3.84;70.70;99741.78;5015508;28;20097;-81
2022/01/27 04:26:42;;;;;;;23.42;10.38;;;;;;;-3.75;70.64;99771.25;4999385;28;20112;-82
2022/01/27 04:29:09;;;;;;;27.60;10.77;;;;;;;-3.76;70.96;99766.09;5021270;28;20069;-80
2022/01/27 04:31:39;;;;;;;20.73;9.45;;;;;;;-3.71;70.49;99765.53;5020111;28;20108;-82
2022/01/27 04:34:06;;;;;;;18.85;8.32;;;;;;;-3.75;70.70;99748.28;5022959;28;20145;-83
2022/01/27 04:36:35;;;;;;;18.35;9.57;;;;;;;-3.74;70.33;99752.59;5016170;28;20089;-82
2022/01/27 04:49:11;;;;;;;23.30;8.75;;;;;;;-3.85;70.24;99760.41;5017245;28;20053;-82
2022/01/27 04:51:39;;;;;;;23.83;8.88;;;;;;;-3.92;70.19;99770.25;5020577;28;20057;-83
2022/01/27 04:56:35;;;;;;;20.20;7.28;;;;;;;-4.04;69.96;99769.56;5014945;28;20054;-81
2022/01/27 04:59:10;;;;;;;21.92;7.28;;;;;;;-3.98;69.90;99757.16;5016481;28;20060;-82
2022/01/27 05:02:14;;;;;;;21.15;7.40;;;;;;;-3.91;69.35;99771.16;5011086;28;20054;-82
2022/01/27 05:04:44;;;;;;;21.40;8.13;;;;;;;-3.97;69.20;99756.34;5013801;28;20042;-82
2022/01/27 05:07:11;;;;;;;22.17;7.38;;;;;;;-3.86;69.16;99751.00;5013756;28;20115;-81
2022/01/27 05:09:46;;;;;;;21.27;7.45;;;;;;;-3.83;68.79;99741.88;5014231;28;20133;-82
2022/01/27 05:12:23;;;;;;;22.08;7.65;;;;;;;-3.78;68.70;99757.44;5016324;28;20104;-82
2022/01/27 05:14:51;;;;;;;16.10;7.50;;;;;;;-3.76;69.05;99766.09;5015585;28;20046;-81
2022/01/27 05:17:19;;;;;;;18.80;7.68;;;;;;;-3.66;68.68;99758.13;5016168;28;20065;-84
2022/01/27 05:19:47;;;;;;;19.80;8.20;;;;;;;-3.71;68.45;99734.03;5014334;28;20060;-84
2022/01/27 05:22:14;;;;;;;18.60;7.40;;;;;;;-3.71;68.27;99749.34;5014628;28;20049;-83
2022/01/27 05:24:42;;;;;;;26.58;7.70;;;;;;;-3.75;68.72;99758.50;5015360;28;20136;-81
2022/01/27 05:27:09;;;;;;;14.35;7.43;;;;;;;-3.78;68.70;99753.22;5014013;28;20066;-80
2022/01/27 05:29:36;;;;;;;19.25;6.68;;;;;;;-3.71;68.25;99757.00;4986824;28;20108;-83
2022/01/27 05:32:04;;;;;;;16.70;7.57;;;;;;;-3.94;68.45;99753.09;5007764;28;20073;-84
2022/01/27 05:34:31;;;;;;;16.85;7.88;;;;;;;-3.91;69.18;99782.25;5015942;28;20054;-82
2022/01/27 05:36:57;;;;;;;18.83;7.88;;;;;;;-3.86;68.73;99758.66;5015160;28;20060;-84
2022/01/27 05:39:25;;;;;;;18.92;8.88;;;;;;;-3.86;68.60;99749.34;5014119;28;20053;-83
2022/01/27 05:41:52;;;;;;;16.27;7.22;;;;;;;-3.95;68.84;99761.56;5015363;28;20058;-83
2022/01/27 05:44:19;;;;;;;15.48;8.30;;;;;;;-4.00;69.01;99775.69;5013871;28;20548;-83
2022/01/27 05:46:46;;;;;;;17.67;8.80;;;;;;;-4.14;68.82;99746.81;5013463;28;20080;-81
2022/01/27 05:49:13;;;;;;;14.95;7.43;;;;;;;-4.17;68.73;99744.09;5014234;28;20046;-82
2022/01/27 05:51:40;;;;;;;16.65;8.13;;;;;;;-4.05;68.90;99774.56;5015332;28;20140;-82
2022/01/27 05:54:07;;;;;;;18.33;8.05;;;;;;;-4.00;68.94;99761.28;5014567;28;20060;-83
2022/01/27 05:56:34;;;;;;;15.52;7.55;;;;;;;-4.01;68.76;99767.16;5013911;28;20125;-83
2022/01/27 05:59:02;;;;;;;20.00;8.52;;;;;;;-4.04;68.56;99750.78;5012999;28;20069;-82
2022/01/27 06:01:29;;;;;;;17.90;8.27;;;;;;;-4.06;69.01;99762.59;5013855;28;20104;-81
2022/01/27 06:04:03;;;;;;;17.02;7.75;;;;;;;-3.95;68.79;99751.34;5016189;28;20054;-78
2022/01/27 06:06:36;;;;;;;12.32;6.38;;;;;;;-3.85;68.14;99740.91;5008934;28;20122;-81
2022/01/27 06:09:03;;;;;;;12.65;6.35;;;;;;;-3.96;68.53;99732.63;5013417;28;20053;-82
2022/01/27 06:11:30;;;;;;;19.77;9.95;;;;;;;-3.85;67.92;99752.75;5012432;28;20056;-82
2022/01/27 06:13:57;;;;;;;18.60;7.88;;;;;;;-3.95;68.80;99747.13;4996049;28;20492;-82
2022/01/27 06:16:24;;;;;;;13.55;6.47;;;;;;;-3.90;68.06;99755.03;5013785;28;20050;-82
2022/01/27 06:18:51;;;;;;;13.95;7.28;;;;;;;-3.95;68.14;99725.84;5012329;28;20081;-81
2022/01/27 06:21:18;;;;;;;16.02;6.30;;;;;;;-3.77;67.96;99733.66;5013988;28;20050;-82
2022/01/27 06:23:45;;;;;;;13.82;5.72;;;;;;;-3.67;67.83;99751.28;5014022;28;20050;-82
2022/01/27 06:26:12;;;;;;;12.40;4.95;;;;;;;-3.74;67.66;99742.41;5013156;28;20537;-83
2022/01/27 06:28:39;;;;;;;9.95;5.43;;;;;;;-3.74;67.95;99751.72;5013710;28;20053;-84
2022/01/27 06:31:06;;;;;;;11.15;5.38;;;;;;;-3.71;67.21;99749.34;5013475;28;20054;-84
2022/01/27 06:33:33;;;;;;;12.32;5.60;;;;;;;-3.83;67.70;99712.88;5011813;28;20101;-82
2022/01/27 06:36:00;;;;;;;9.77;5.95;;;;;;;-3.83;67.26;99735.84;5012160;28;20050;-81
2022/01/27 06:38:27;;;;;;;11.27;5.00;;;;;;;-3.91;67.63;99741.41;5013347;28;20144;-80
2022/01/27 06:40:54;;;;;;;12.05;5.38;;;;;;;-3.91;67.65;99740.53;5013088;28;20060;-79
2022/01/27 06:43:21;;;;;;;10.35;5.30;;;;;;;-3.91;67.76;99754.16;5013312;28;20046;-80
2022/01/27 06:45:48;;;;;;;10.75;4.82;;;;;;;-3.86;67.94;99761.22;5012967;28;20065;-81
2022/01/27 06:48:15;;;;;;;7.88;5.30;;;;;;;-3.80;67.62;99746.28;5013000;28;20497;-81
2022/01/27 06:50:42;;;;;;;9.75;5.47;;;;;;;-3.81;67.15;99741.94;5012121;28;20407;-80
2022/01/27 06:53:09;;;;;;;11.27;5.80;;;;;;;-3.84;67.33;99752.84;5012752;28;20054;-81
2022/01/27 06:55:38;;;;;;;11.48;5.85;;;;;;;-3.74;67.30;99742.41;5012616;28;20049;-80
2022/01/27 06:58:05;;;;;;;12.63;5.35;;;;;;;-3.58;66.88;99756.91;5012762;28;20057;-82
2022/01/27 07:00:32;;;;;;;13.55;5.85;;;;;;;-3.63;66.74;99739.59;5015647;28;20068;-80
2022/01/27 07:02:59;;;;;;;16.58;5.85;;;;;;;-3.57;66.33;99755.25;4998332;28;20049;-80
2022/01/27 07:05:26;;;;;;;14.18;6.15;;;;;;;-3.54;66.51;99761.41;5012766;28;20136;-81
2022/01/27 07:07:53;;;;;;;12.07;5.80;;;;;;;-3.54;66.22;99758.84;5012438;28;20077;-79
2022/01/27 07:10:21;;;;;;;10.20;5.55;;;;;;;-3.77;66.35;99732.00;5012207;28;20108;-84
2022/01/27 07:12:48;;;;;;;12.13;5.57;;;;;;;-3.51;66.39;99763.25;5012346;28;20045;-81
2022/01/27 07:15:15;;;;;;;13.70;6.07;;;;;;;-3.32;66.10;99763.50;5012490;28;20057;-80
2022/01/27 07:17:42;;;;;;;10.60;5.15;;;;;;;-3.20;65.65;99745.47;5012348;28;20061;-82
2022/01/27 07:20:10;;;;;;;12.40;5.45;;;;;;;-3.20;65.27;99729.25;5016410;28;20049;-82
2022/01/27 07:22:37;;;;;;;12.55;6.07;;;;;;;-3.07;65.46;99753.81;5012291;28;20066;-82
2022/01/27 07:25:06;;;;;;;12.05;5.35;;;;;;;-3.24;65.53;99727.31;5012394;28;20057;-83
2022/01/27 07:27:35;;;;;;;10.25;4.70;;;;;;;-3.01;65.29;99754.13;4994607;28;20434;-81
2022/01/27 07:30:04;;;;;;;8.98;5.05;;;;;;;-2.83;65.08;99752.59;5011854;28;20049;-81
2022/01/27 07:32:31;;;;;;;12.18;4.88;;;;;;;-2.68;64.38;99745.75;5012754;28;20108;-81
2022/01/27 07:34:58;;;;;;;9.30;4.60;;;;;;;-2.64;64.39;99731.47;5012242;28;20045;-82
2022/01/27 07:37:25;;;;;;;11.68;4.70;;;;;;;-2.31;63.43;99764.75;4994497;28;20054;-81
2022/01/27 07:39:52;;;;;;;9.57;4.90;;;;;;;-2.35;63.06;99755.16;5012026;28;20054;-80
2022/01/27 07:42:19;;;;;;;9.68;4.32;;;;;;;-2.29;63.33;99745.25;4994682;28;20556;-80
2022/01/27 07:44:47;;;;;;;7.38;4.30;;;;;;;-2.13;62.62;99762.28;4993389;28;20168;-80
2022/01/27 07:47:14;;;;;;;6.25;4.15;;;;;;;-2.05;62.77;99745.63;5010791;28;20077;-81
2022/01/27 07:49:41;;;;;;;9.63;4.30;;;;;;;-2.06;62.38;99747.31;5012048;28;20587;-81
2022/01/27 07:52:12;;;;;;;7.70;4.57;;;;;;;-2.04;62.43;99733.72;5016413;28;20064;-82
2022/01/27 07:54:39;;;;;;;9.55;4.30;;;;;;;-1.86;61.75;99748.34;5012112;28;20042;-81
2022/01/27 07:57:06;;;;;;;5.28;3.35;;;;;;;-1.82;61.32;99733.16;5012116;28;20080;-82
2022/01/27 07:59:33;;;;;;;7.63;3.83;;;;;;;-1.67;60.33;99737.34;5011933;28;20050;-81
2022/01/27 08:01:59;;;;;;;7.97;4.13;;;;;;;-1.85;60.46;99713.34;5011567;28;20135;-80
2022/01/27 08:04:27;;;;;;;9.05;4.13;;;;;;;-1.90;60.35;99699.47;5011645;28;20509;-80
2022/01/27 08:06:54;;;;;;;8.68;4.07;;;;;;;-1.65;59.97;99735.75;5011529;28;20410;-80
2022/01/27 08:09:23;;;;;;;8.82;4.13;;;;;;;-1.86;60.67;99726.97;4979018;28;20045;-81
2022/01/27 08:11:51;;;;;;;7.15;4.38;;;;;;;-1.84;60.31;99745.88;5011651;28;20054;-81
2022/01/27 08:14:18;;;;;;;7.68;4.03;;;;;;;-1.83;60.10;99734.81;4994506;28;20519;-81
2022/01/27 08:16:46;;;;;;;7.07;4.07;;;;;;;-1.77;60.02;99721.44;5011788;28;20058;-79
2022/01/27 08:19:13;;;;;;;8.98;4.18;;;;;;;-1.71;59.39;99742.25;4978199;28;20077;-82
2022/01/27 08:21:40;;;;;;;9.07;4.40;;;;;;;-1.46;58.92;99719.59;5011976;28;20047;-84
2022/01/27 08:24:07;;;;;;;9.82;4.30;;;;;;;-1.41;58.37;99734.31;5011960;28;20072;-80
2022/01/27 08:26:41;;;;;;;7.72;4.32;;;;;;;-1.56;59.07;99726.75;5011650;28;20066;-81
2022/01/27 08:29:13;;;;;;;10.50;5.03;;;;;;;-1.62;58.87;99732.44;5011392;28;20053;-81
2022/01/27 08:31:56;;;;;;;8.05;4.95;;;;;;;-1.78;59.01;99730.81;5011755;28;20497;-86
2022/01/27 08:34:39;;;;;;;10.25;6.00;;;;;;;-2.00;59.93;99727.94;5011738;28;20555;-82
2022/01/27 08:37:09;;;;;;;8.93;4.97;;;;;;;-2.19;59.34;99703.13;5012177;28;20144;-80
2022/01/27 08:39:38;;;;;;;8.68;4.93;;;;;;;-2.02;59.38;99722.78;5012067;28;20076;-81
2022/01/27 08:42:07;;;;;;;8.30;4.68;;;;;;;-1.83;58.75;99721.13;4994429;28;20060;-80
2022/01/27 08:44:35;;;;;;;9.02;4.45;;;;;;;-2.06;58.57;99700.38;5011812;28;20046;-82
2022/01/27 08:47:03;;;;;;;7.97;5.25;;;;;;;-1.80;58.80;99718.75;5011474;28;20108;-81
2022/01/27 08:49:31;;;;;;;8.25;4.60;;;;;;;-1.58;58.69;99725.81;5011353;28;20060;-82
2022/01/27 08:51:58;;;;;;;8.70;5.00;;;;;;;-1.31;57.35;99698.97;5011640;28;20069;-83
2022/01/27 08:54:26;;;;;;;11.07;4.90;;;;;;;-1.04;57.21;99714.75;5012258;28;20065;-82
2022/01/27 08:56:53;;;;;;;8.85;4.68;;;;;;;-1.21;57.64;99723.34;5016305;28;20049;-81
2022/01/27 08:59:20;;;;;;;8.07;4.75;;;;;;;-1.51;57.65;99703.09;5014710;28;20111;-80
2022/01/27 09:01:47;;;;;;;7.03;4.13;;;;;;;-1.60;57.51;99712.91;5015197;28;20057;-81
2022/01/27 09:04:15;;;;;;;7.40;4.60;;;;;;;-2.05;58.20;99686.75;4981420;28;20058;-80
2022/01/27 09:06:42;;;;;;;9.80;5.47;;;;;;;-2.16;58.56;99693.03;4997537;28;20050;-80
2022/01/27 09:09:09;;;;;;;7.40;4.53;;;;;;;-2.14;59.19;99709.34;5015657;28;20074;-81
2022/01/27 09:11:36;;;;;;;6.88;4.72;;;;;;;-1.90;58.97;99702.88;5017463;28;20053;-81
2022/01/27 09:14:04;;;;;;;8.82;5.13;;;;;;;-1.98;58.75;99665.81;5014943;28;20045;-82
2022/01/27 09:16:35;;;;;;;7.10;4.40;;;;;;;-1.91;58.81;99701.16;5017398;28;20153;-81
2022/01/27 09:19:25;;;;;;;9.02;4.57;;;;;;;-2.30;58.98;99669.31;5007529;28;20084;-80
2022/01/27 09:21:54;;;;;;;8.57;4.80;;;;;;;-2.19;58.97;99678.41;5035088;28;20054;-80
2022/01/27 09:24:36;;;;;;;7.65;4.53;;;;;;;-2.08;58.84;99696.84;5034446;28;20069;-78
2022/01/27 09:27:04;;;;;;;6.70;4.30;;;;;;;-2.07;58.76;99686.69;5031716;28;20066;-80
2022/01/27 09:29:32;;;;;;;7.45;4.35;;;;;;;-2.10;59.20;99675.41;5035852;28;20061;-79
2022/01/27 09:32:02;;;;;;;6.78;4.15;;;;;;;-1.95;58.29;99691.56;5035081;28;20045;-79
2022/01/27 09:34:30;;;;;;;10.53;4.30;;;;;;;-2.27;58.45;99693.34;5019778;28;20439;-79
2022/01/27 09:37:02;;;;;;;6.63;4.05;;;;;;;-2.53;58.98;99670.66;5017202;28;20085;-81
2022/01/27 09:39:31;;;;;;;6.03;3.55;;;;;;;-2.61;59.02;99685.59;4998914;28;20460;-80
2022/01/27 09:42:01;;;;;;;5.90;3.72;;;;;;;-2.60;58.78;99674.56;4981471;28;20437;-79
2022/01/27 09:44:32;;;;;;;4.68;3.13;;;;;;;-2.74;59.13;99684.06;5015661;28;20054;-81
2022/01/27 09:47:06;;;;;;;5.60;3.85;;;;;;;-2.88;58.89;99682.47;5014375;28;20068;-80
2022/01/27 09:49:39;;;;;;;6.88;4.22;;;;;;;-2.98;59.48;99693.84;5014893;28;20079;-79
2022/01/27 09:52:06;;;;;;;5.82;3.88;;;;;;;-3.02;59.22;99679.13;5018957;28;20045;-80
2022/01/27 09:54:35;;;;;;;6.20;3.60;;;;;;;-3.17;59.47;99668.97;5015383;28;20152;-80
2022/01/27 09:57:04;;;;;;;4.90;3.42;;;;;;;-3.11;59.07;99684.63;5024296;28;20034;-81
2022/01/27 09:59:32;;;;;;;4.60;3.20;;;;;;;-3.09;59.27;99675.38;5030361;28;20054;-79
2022/01/27 10:02:05;;;;;;;5.63;3.28;;;;;;;-3.04;59.25;99690.94;5032439;28;20058;-82
2022/01/27 10:04:53;;;;;;;4.43;3.17;;;;;;;-3.00;59.00;99686.91;5027269;28;20464;-79
2022/01/27 10:07:26;;;;;;;8.02;3.00;;;;;;;-3.04;58.31;99679.84;5031437;28;20050;-81
2022/01/27 10:10:01;;;;;;;6.82;3.50;;;;;;;-3.00;58.65;99689.47;5034059;28;20045;-81
2022/01/27 10:12:37;;;;;;;4.95;3.10;;;;;;;-2.96;58.10;99693.94;5012692;28;20049;-81
2022/01/27 10:15:10;;;;;;;5.40;3.08;;;;;;;-2.75;57.90;99689.13;4981844;28;20476;-82
2022/01/27 10:18:07;;;;;;;5.07;3.10;;;;;;;-2.83;57.54;99686.13;5013041;28;20053;-82
2022/01/27 10:20:40;;;;;;;6.05;3.28;;;;;;;-2.97;57.93;99674.28;5014202;28;20054;-81
2022/01/27 10:23:13;;;;;;;6.22;3.05;;;;;;;-3.17;58.43;99678.31;5015512;28;20061;-84
2022/01/27 10:25:47;;;;;;;7.03;3.25;;;;;;;-3.02;58.04;99679.13;5013602;28;20069;-80
2022/01/27 10:28:46;;;;;;;5.05;3.13;;;;;;;-3.02;58.31;99679.13;5014091;28;20468;-81
2022/01/27 10:31:23;;;;;;;5.85;2.97;;;;;;;-3.09;58.15;99667.72;5013371;28;20050;-83
2022/01/27 10:34:04;;;;;;;3.75;2.60;;;;;;;-3.04;57.93;99659.41;4995595;28;20046;-80
2022/01/27 10:36:41;;;;;;;6.07;2.72;;;;;;;-3.05;58.05;99662.75;5012946;28;20089;-82
2022/01/27 10:39:11;;;;;;;4.32;2.60;;;;;;;-2.98;58.20;99668.28;5012531;28;20096;-81
2022/01/27 10:42:08;;;;;;;3.92;2.30;;;;;;;-3.07;58.01;99666.94;5010868;28;20053;-82
2022/01/27 10:44:45;;;;;;;5.20;2.70;;;;;;;-3.20;58.01;99658.59;5011724;28;20418;-80
2022/01/27 10:47:26;;;;;;;6.88;3.10;;;;;;;-3.15;58.28;99664.81;4979097;28;20464;-81
2022/01/27 10:50:03;;;;;;;4.95;2.60;;;;;;;-3.33;58.26;99644.25;5013096;28;20193;-83
2022/01/27 10:52:44;;;;;;;6.63;2.50;;;;;;;-3.37;58.19;99631.25;5012652;28;20584;-80
2022/01/27 10:55:20;;;;;;;4.50;2.30;;;;;;;-3.18;58.25;99662.09;5012679;28;20523;-84
2022/01/27 10:57:50;;;;;;;3.88;2.50;;;;;;;-3.09;58.15;99664.28;5012632;28;20057;-84
2022/01/27 11:00:19;;;;;;;;;;;;;;;-3.21;58.54;99650.81;4995564;28;20076;-83
2022/01/27 11:03:02;;;;;;;7.90;2.80;;;;;;;-3.19;58.24;99641.56;5009963;28;19931;-83
2022/01/27 11:05:33;;;;;;;4.85;2.40;;;;;;;-3.25;57.94;99646.34;4992967;28;20053;-84
2022/01/27 11:08:03;;;;;;;6.60;2.60;;;;;;;-3.40;58.36;99654.94;5021672;28;20045;-83
2022/01/27 11:10:30;;;;;;;4.97;2.60;;;;;;;-3.43;58.59;99646.22;5026297;28;20054;-83
2022/01/27 11:12:59;;;;;;;3.90;2.40;;;;;;;-3.38;58.48;99632.88;5025547;28;20130;-81
2022/01/27 11:15:26;;;;;;;3.92;2.50;;;;;;;-3.35;58.52;99634.75;5021827;28;20042;-82
2022/01/27 11:17:55;;;;;;;6.55;2.55;;;;;;;-3.33;58.49;99640.84;5024513;28;20046;-82
2022/01/27 11:20:56;;;;;;;9.23;3.63;;;;;;;-3.52;58.77;99613.41;5022756;28;20053;-83
2022/01/27 11:23:59;;;;;;;5.30;2.30;;;;;;;-3.50;58.84;99630.56;4998109;28;20128;-83
2022/01/27 11:26:27;;;;;;;4.57;2.25;;;;;;;-3.40;59.11;99633.59;5012762;28;20057;-83
2022/01/27 11:28:57;;;;;;;4.50;2.58;;;;;;;-3.46;58.89;99630.72;5012753;28;20058;-83
2022/01/27 11:31:47;;;;;;;4.85;2.50;;;;;;;-3.53;59.22;99629.50;5012912;28;20057;-84
2022/01/27 11:34:14;;;;;;;6.07;2.55;;;;;;;-3.57;59.24;99600.38;4975986;28;20054;-82
2022/01/27 11:37:05;;;;;;;4.90;2.45;;;;;;;-3.42;58.94;99613.13;5013382;28;20049;-83
2022/01/27 11:39:54;;;;;;;9.10;2.78;;;;;;;-3.50;58.80;99612.69;5012483;28;20073;-83
2022/01/27 11:42:34;;;;;;;8.65;2.92;;;;;;;-3.41;59.12;99609.75;4996565;28;20468;-83
2022/01/27 11:45:20;;;;;;;7.95;2.53;;;;;;;-3.41;59.25;99616.53;5014136;28;20064;-84
2022/01/27 11:47:51;;;;;;;6.38;2.67;;;;;;;-3.37;59.43;99609.13;5018364;28;20050;-83
2022/01/27 11:50:38;;;;;;;6.13;2.90;;;;;;;-3.40;59.25;99605.50;5013169;28;20049;-83
2022/01/27 11:53:14;;;;;;;6.28;3.13;;;;;;;-3.28;59.29;99624.06;4994826;28;20179;-82
2022/01/27 11:55:44;;;;;;;6.85;3.28;;;;;;;-3.50;59.41;99597.34;5012697;28;20065;-82
2022/01/27 11:58:24;;;;;;;5.55;3.00;;;;;;;-3.45;59.55;99605.25;5012214;28;20168;-85
2022/01/27 12:01:06;;;;;;;11.88;3.45;;;;;;;-3.56;59.89;99603.81;4994977;28;20058;-82
2022/01/27 12:03:35;;;;;;;8.20;3.15;;;;;;;-3.55;59.73;99609.00;4994236;28;20056;-82
2022/01/27 12:06:14;;;;;;;11.50;3.30;;;;;;;-3.62;59.98;99601.78;5012147;28;20050;-82
2022/01/27 12:08:42;;;;;;;10.90;3.05;;;;;;;-3.79;60.29;99582.09;5012088;28;20054;-83
2022/01/27 12:11:43;;;;;;;7.57;3.20;;;;;;;-3.80;60.11;99593.13;4997039;28;20113;-83
2022/01/27 12:14:10;;;;;;;10.23;3.67;;;;;;;-3.80;60.60;99591.44;5016078;28;20062;-82
2022/01/27 12:16:51;;;;;;;7.57;3.10;;;;;;;-3.81;60.43;99589.66;5011765;28;20049;-80
2022/01/27 12:19:18;;;;;;;;;;;;;;;-3.96;60.54;99594.81;4996024;28;20050;-82
2022/01/27 12:21:53;;;;;;;6.28;2.70;;;;;;;-4.02;60.83;99584.25;5011966;28;20027;-83
2022/01/27 12:24:27;;;;;;;6.13;3.00;;;;;;;-4.16;60.77;99586.00;5011404;28;20595;-82
2022/01/27 12:27:04;;;;;;;5.43;2.72;;;;;;;-4.15;60.93;99587.78;4994988;28;20157;-83
2022/01/27 12:29:39;;;;;;;7.35;3.60;;;;;;;-4.23;61.32;99585.56;5012107;28;20046;-83
2022/01/27 12:32:24;;;;;;;6.22;3.20;;;;;;;-4.11;61.23;99604.13;4997756;28;20154;-82
2022/01/27 12:34:53;;;;;;;5.45;3.55;;;;;;;-3.95;60.80;99590.56;5015322;28;20411;-82
2022/01/27 12:37:23;;;;;;;6.25;3.13;;;;;;;-3.96;60.75;99576.94;5016219;28;20152;-82
2022/01/27 12:39:59;;;;;;;4.93;2.95;;;;;;;-3.93;61.23;99589.88;5017087;28;20058;-83